Time;durP1;ratioP1;P1;durP2;ratioP2;P2;SDS_P1;SDS_P2;PMS_P1;PMS_P2;Temp;Humidity;BMP_temperature;BMP_pressure;BME280_temperature;BME280_humidity;BME280_pressure;Samples;Min_cycle;Max_cycle;Signal;HPM_P1;HPM_P2
2022/06/13 00:00:29;;;;;;;10.98;5.05;;;12.90;99.90;;;;;;4789015;29;20043;-68
2022/06/13 00:02:55;;;;;;;13.93;4.47;;;12.90;99.90;;;;;;4803447;29;20065;-68
2022/06/13 00:05:21;;;;;;;9.02;4.57;;;12.90;99.90;;;;;;4789996;29;20456;-67
2022/06/13 00:07:47;;;;;;;10.10;4.90;;;12.90;99.90;;;;;;4787036;29;20085;-68
2022/06/13 00:10:13;;;;;;;11.90;4.47;;;12.90;99.90;;;;;;4789929;29;20042;-68
2022/06/13 00:12:41;;;;;;;8.10;4.38;;;12.90;99.90;;;;;;4789008;29;20457;-68
2022/06/13 00:15:09;;;;;;;10.13;4.60;;;12.90;99.90;;;;;;4788731;29;20121;-66
2022/06/13 00:17:35;;;;;;;10.82;5.20;;;13.00;99.90;;;;;;4788102;29;20063;-66
2022/06/13 00:20:01;;;;;;;13.65;5.13;;;12.90;99.90;;;;;;4789442;29;20059;-69
2022/06/13 00:22:26;;;;;;;12.57;4.78;;;13.00;99.90;;;;;;4804417;29;20081;-66
2022/06/13 00:24:52;;;;;;;12.77;4.95;;;12.90;99.90;;;;;;4788314;29;20102;-69
2022/06/13 00:27:18;;;;;;;10.60;5.22;;;12.90;99.90;;;;;;4789461;29;20121;-66
2022/06/13 00:29:47;;;;;;;12.85;5.32;;;12.90;99.90;;;;;;4789254;29;20054;-68
2022/06/13 00:32:13;;;;;;;10.00;5.95;;;12.90;99.90;;;;;;4795557;29;20090;-66
2022/06/13 00:34:39;;;;;;;9.68;5.25;;;13.00;99.90;;;;;;4789403;29;20469;-67
2022/06/13 00:37:05;;;;;;;11.43;5.72;;;13.00;99.90;;;;;;4805079;29;20177;-68
2022/06/13 00:39:31;;;;;;;10.48;5.95;;;13.00;99.90;;;;;;4788017;29;20051;-67
2022/06/13 00:41:56;;;;;;;10.25;6.10;;;13.00;99.90;;;;;;4805023;29;20055;-67
2022/06/13 00:44:26;;;;;;;11.50;5.57;;;13.00;99.90;;;;;;4804706;29;20042;-69
2022/06/13 00:46:52;;;;;;;9.27;4.80;;;13.00;99.90;;;;;;4803915;29;20053;-67
2022/06/13 00:49:39;;;;;;;13.18;5.93;;;13.00;99.90;;;;;;4788265;29;20039;-69
2022/06/13 00:52:23;;;;;;;10.02;5.55;;;13.00;99.90;;;;;;4805437;29;20484;-68
2022/06/13 00:54:51;;;;;;;14.93;5.32;;;13.00;99.90;;;;;;4805341;29;20054;-68
2022/06/13 00:57:20;;;;;;;13.73;4.93;;;13.00;99.90;;;;;;4788667;29;20047;-69
2022/06/13 00:59:48;;;;;;;14.18;5.10;;;13.00;99.90;;;;;;4789847;29;20394;-67
2022/06/13 01:02:14;;;;;;;12.07;6.63;;;13.00;99.90;;;;;;4803361;29;20104;-66
2022/06/13 01:04:40;;;;;;;8.75;4.80;;;13.00;99.90;;;;;;4789239;29;20043;-67
2022/06/13 01:07:08;;;;;;;9.55;4.78;;;13.00;99.90;;;;;;4805623;29;20051;-68
2022/06/13 01:12:20;;;;;;;9.40;5.50;;;12.90;99.90;;;;;;4787831;29;20054;-68
2022/06/13 01:15:00;;;;;;;11.15;5.25;;;12.90;99.90;;;;;;4789259;29;20477;-67
2022/06/13 01:17:34;;;;;;;10.15;5.00;;;12.90;99.90;;;;;;4787832;29;20067;-67
2022/06/13 01:20:08;;;;;;;10.50;5.00;;;12.90;99.90;;;;;;4788453;29;20054;-66
2022/06/13 01:23:04;;;;;;;11.68;5.53;;;12.90;99.90;;;;;;4788479;29;20047;-68
2022/06/13 01:25:37;;;;;;;8.00;4.70;;;12.90;99.90;;;;;;4776042;29;20055;-66
2022/06/13 01:28:16;;;;;;;9.52;5.35;;;12.90;99.90;;;;;;4807914;29;20523;-67
2022/06/13 01:31:06;;;;;;;11.13;5.40;;;12.90;99.90;;;;;;4791142;29;20058;-68
2022/06/13 01:33:50;;;;;;;8.52;5.03;;;12.90;99.90;;;;;;4808316;29;20503;-66
2022/06/13 01:36:36;;;;;;;11.30;5.00;;;12.90;99.90;;;;;;4808077;29;20477;-68
2022/06/13 01:39:29;;;;;;;11.82;5.32;;;12.90;99.90;;;;;;4807480;29;20046;-68
2022/06/13 01:42:23;;;;;;;11.10;5.05;;;12.90;99.90;;;;;;4794318;29;20472;-68
2022/06/13 01:45:45;;;;;;;11.02;5.30;;;12.90;99.90;;;;;;4806553;29;20073;-67
2022/06/13 01:48:38;;;;;;;10.32;5.63;;;12.90;99.90;;;;;;4754203;30;20075;-67
2022/06/13 01:51:12;;;;;;;13.13;5.25;;;12.90;99.90;;;;;;4799242;29;20142;-68
2022/06/13 01:53:49;;;;;;;8.07;4.78;;;12.90;99.90;;;;;;4790172;29;20054;-67
2022/06/13 01:56:19;;;;;;;9.63;5.07;;;12.90;99.90;;;;;;4777164;29;20043;-68
2022/06/13 01:58:53;;;;;;;10.80;5.68;;;12.90;99.90;;;;;;4808162;29;20047;-67
2022/06/13 02:01:34;;;;;;;9.80;5.28;;;12.90;99.90;;;;;;4807653;29;20070;-66
2022/06/13 02:04:10;;;;;;;14.38;5.43;;;12.90;99.90;;;;;;4767829;29;20043;-66
2022/06/13 02:06:44;;;;;;;11.55;6.03;;;13.00;99.90;;;;;;4791846;29;20407;-66
2022/06/13 02:09:16;;;;;;;13.00;5.82;;;13.00;99.90;;;;;;4791012;29;20077;-67
2022/06/13 02:11:49;;;;;;;11.63;6.13;;;13.00;99.90;;;;;;4791262;29;20055;-68
2022/06/13 02:14:33;;;;;;;12.48;6.50;;;13.00;99.90;;;;;;4791556;29;20050;-66
2022/06/13 02:17:15;;;;;;;11.75;6.00;;;13.00;99.90;;;;;;4790654;29;20492;-69
2022/06/13 02:20:02;;;;;;;10.85;5.78;;;13.00;99.90;;;;;;4795285;29;20369;-66
2022/06/13 02:22:51;;;;;;;15.25;7.00;;;13.00;99.90;;;;;;4790253;29;20412;-68
2022/06/13 02:25:28;;;;;;;11.85;6.63;;;13.10;99.90;;;;;;4806929;29;20051;-67
2022/06/13 02:28:04;;;;;;;9.70;5.93;;;13.10;99.90;;;;;;4807022;29;20449;-67
2022/06/13 02:30:34;;;;;;;10.82;5.80;;;13.00;99.90;;;;;;4790692;29;20373;-67
2022/06/13 02:33:09;;;;;;;11.70;6.40;;;13.00;99.90;;;;;;4790865;29;20082;-69
2022/06/13 02:35:48;;;;;;;11.43;6.20;;;13.00;99.90;;;;;;4806763;29;20051;-68
2022/06/13 02:38:26;;;;;;;14.07;6.97;;;13.00;99.90;;;;;;4790516;29;20051;-67
2022/06/13 02:40:56;;;;;;;11.68;6.10;;;13.00;99.90;;;;;;4804850;29;20118;-67
2022/06/13 02:43:41;;;;;;;11.70;6.50;;;12.90;99.90;;;;;;4790812;29;20062;-68
2022/06/13 02:46:17;;;;;;;9.07;6.28;;;12.90;99.90;;;;;;4789769;29;20074;-67
2022/06/13 02:48:55;;;;;;;12.07;6.53;;;12.80;99.90;;;;;;4790444;29;20091;-67
2022/06/13 02:52:06;;;;;;;12.40;7.13;;;12.80;99.90;;;;;;4790126;29;20480;-66
2022/06/13 02:54:40;;;;;;;13.82;7.22;;;12.80;99.90;;;;;;4773725;29;20062;-68
2022/06/13 02:57:27;;;;;;;12.18;7.28;;;12.80;99.90;;;;;;4789874;29;20095;-69
2022/06/13 03:00:08;;;;;;;16.20;7.47;;;12.80;99.90;;;;;;4790739;29;20082;-66
2022/06/13 03:02:52;;;;;;;15.60;8.00;;;12.80;99.90;;;;;;4782038;30;20055;-67
2022/06/13 03:05:47;;;;;;;17.75;8.10;;;12.80;99.90;;;;;;4803954;29;20054;-68
2022/06/13 03:08:36;;;;;;;12.32;7.68;;;12.80;99.90;;;;;;4803359;29;20066;-67
2022/06/13 03:11:30;;;;;;;13.32;7.18;;;12.80;99.90;;;;;;4804529;29;20054;-67
2022/06/13 03:14:14;;;;;;;14.57;7.00;;;12.80;99.90;;;;;;4801863;29;20073;-68
2022/06/13 03:17:00;;;;;;;12.85;7.35;;;12.80;99.90;;;;;;4790157;29;20058;-66
2022/06/13 03:19:31;;;;;;;14.27;7.22;;;12.80;99.90;;;;;;4790871;29;20415;-68
2022/06/13 03:22:15;;;;;;;11.20;6.90;;;12.80;99.90;;;;;;4790423;29;20054;-67
2022/06/13 03:25:00;;;;;;;10.82;7.10;;;12.80;99.90;;;;;;4806490;29;20404;-67
2022/06/13 03:27:35;;;;;;;10.65;5.85;;;12.80;99.90;;;;;;4789381;29;20062;-67
2022/06/13 03:30:04;;;;;;;15.90;7.80;;;12.90;99.90;;;;;;4790362;29;20063;-66
2022/06/13 03:32:40;;;;;;;12.43;7.75;;;12.90;99.90;;;;;;4789882;29;20381;-67
2022/06/13 03:35:11;;;;;;;14.35;7.05;;;12.80;99.90;;;;;;4806683;29;20050;-69
2022/06/13 03:37:48;;;;;;;12.48;6.90;;;12.90;99.90;;;;;;4806009;29;20058;-68
2022/06/13 03:40:29;;;;;;;13.90;6.75;;;12.90;99.90;;;;;;4789052;29;20115;-68
2022/06/13 03:43:23;;;;;;;11.93;7.10;;;12.90;99.90;;;;;;4772439;30;20454;-67
2022/06/13 03:46:07;;;;;;;14.07;7.38;;;12.90;99.90;;;;;;4767556;30;20050;-69
2022/06/13 03:48:58;;;;;;;12.15;6.82;;;12.90;99.90;;;;;;4771822;30;20050;-69
2022/06/13 03:51:36;;;;;;;12.15;6.75;;;12.90;99.90;;;;;;4772751;29;21779;-68
2022/06/13 03:54:28;;;;;;;13.60;6.57;;;13.00;99.90;;;;;;4775088;29;20042;-68
2022/06/13 03:57:21;;;;;;;13.90;6.72;;;13.00;99.90;;;;;;4774825;29;20043;-67
2022/06/13 03:59:56;;;;;;;11.38;6.13;;;13.00;99.90;;;;;;4775429;29;20098;-67
2022/06/13 04:02:28;;;;;;;14.65;6.57;;;13.10;99.90;;;;;;4774214;29;20433;-67
2022/06/13 04:04:53;;;;;;;11.27;5.32;;;13.10;99.90;;;;;;4774944;29;20508;-67
2022/06/13 04:07:21;;;;;;;12.63;5.70;;;13.20;99.90;;;;;;4772164;29;20031;-69
2022/06/13 04:10:06;;;;;;;12.13;5.20;;;13.30;99.90;;;;;;4789664;29;20046;-69
2022/06/13 04:13:09;;;;;;;11.65;5.35;;;13.30;99.90;;;;;;4789233;29;20055;-67
2022/06/13 04:15:53;;;;;;;13.63;5.32;;;13.10;99.90;;;;;;4774127;29;20138;-66
2022/06/13 04:18:44;;;;;;;11.82;5.00;;;13.30;99.90;;;;;;4774819;29;20050;-67
2022/06/13 04:21:35;;;;;;;7.68;4.40;;;13.40;99.90;;;;;;4773595;29;20050;-66
2022/06/13 04:24:24;;;;;;;14.77;5.63;;;13.40;99.90;;;;;;4781230;29;20046;-66
2022/06/13 04:27:04;;;;;;;9.10;4.80;;;13.40;99.90;;;;;;4787722;29;20471;-69
2022/06/13 04:29:41;;;;;;;9.68;4.55;;;13.40;99.90;;;;;;4789592;29;20425;-68
2022/06/13 04:32:18;;;;;;;10.77;5.18;;;13.40;99.90;;;;;;4804871;29;20129;-69
2022/06/13 04:34:47;;;;;;;11.15;4.90;;;13.50;99.90;;;;;;4805464;29;20050;-68
2022/06/13 04:37:15;;;;;;;9.98;5.13;;;13.50;99.90;;;;;;4788971;29;20103;-66
2022/06/13 04:39:42;;;;;;;16.90;5.50;;;13.60;99.90;;;;;;4796350;29;20065;-66
2022/06/13 04:42:09;;;;;;;10.77;5.20;;;13.60;99.90;;;;;;4805569;29;20081;-68
2022/06/13 04:44:36;;;;;;;12.57;5.03;;;13.70;99.90;;;;;;4804882;29;20430;-68
2022/06/13 04:47:03;;;;;;;13.48;5.70;;;13.80;99.90;;;;;;4797502;29;20138;-68
2022/06/13 04:49:31;;;;;;;13.23;5.32;;;13.90;99.90;;;;;;4789120;29;20138;-67
2022/06/13 04:52:00;;;;;;;10.07;5.15;;;14.00;99.90;;;;;;4773848;29;20054;-67
2022/06/13 04:54:31;;;;;;;12.00;5.30;;;14.10;99.90;;;;;;4789841;29;20062;-67
2022/06/13 04:57:01;;;;;;;16.10;5.80;;;14.20;99.90;;;;;;4789229;29;20051;-69
2022/06/13 04:59:28;;;;;;;7.75;4.72;;;14.30;99.90;;;;;;4792556;29;20530;-68
2022/06/13 05:01:55;;;;;;;9.43;4.80;;;14.40;99.90;;;;;;4807637;29;20055;-69
2022/06/13 05:04:29;;;;;;;11.55;5.50;;;14.50;99.90;;;;;;4806662;29;20126;-67
2022/06/13 05:06:58;;;;;;;11.15;4.75;;;14.60;99.90;;;;;;4792150;29;20383;-67
2022/06/13 05:09:27;;;;;;;13.80;5.20;;;14.70;99.90;;;;;;4791048;29;20050;-70
2022/06/13 05:12:18;;;;;;;9.00;4.50;;;14.70;99.90;;;;;;4791570;29;20101;-68
2022/06/13 05:15:05;;;;;;;9.93;4.50;;;14.80;99.90;;;;;;4791875;29;20061;-69
2022/06/13 05:17:49;;;;;;;11.57;4.07;;;15.00;99.90;;;;;;4808545;29;20061;-68
2022/06/13 05:20:19;;;;;;;8.02;3.97;;;15.10;99.90;;;;;;4808662;29;20094;-70
2022/06/13 05:23:26;;;;;;;8.32;4.05;;;15.30;99.90;;;;;;4792034;29;20054;-67
2022/06/13 05:25:58;;;;;;;6.35;3.42;;;15.40;99.90;;;;;;4783205;29;20059;-69
2022/06/13 05:28:32;;;;;;;8.15;3.63;;;15.60;99.90;;;;;;4787399;29;20510;-67
2022/06/13 05:31:00;;;;;;;7.47;3.40;;;15.80;99.90;;;;;;4806943;29;20047;-67
2022/06/13 05:33:29;;;;;;;7.70;3.50;;;16.60;99.90;;;;;;4790708;29;20054;-67
2022/06/13 05:35:57;;;;;;;10.27;4.03;;;17.30;99.90;;;;;;4804120;29;20044;-70
2022/06/13 05:38:33;;;;;;;8.02;3.70;;;17.70;99.90;;;;;;4792144;29;20039;-67
2022/06/13 05:40:58;;;;;;;10.50;3.47;;;18.10;99.90;;;;;;4776378;29;20046;-68
2022/06/13 05:43:24;;;;;;;7.60;3.40;;;18.20;99.90;;;;;;4782753;29;20400;-67
2022/06/13 05:45:51;;;;;;;7.05;3.20;;;18.30;99.90;;;;;;4793153;29;20062;-68
2022/06/13 05:48:19;;;;;;;8.63;3.67;;;18.90;99.90;;;;;;4787684;29;20138;-67
2022/06/13 05:50:45;;;;;;;6.85;3.45;;;19.60;99.90;;;;;;4805553;29;20544;-69
2022/06/13 05:53:17;;;;;;;7.30;3.55;;;20.00;99.90;;;;;;4802528;29;20146;-67
2022/06/13 05:55:44;;;;;;;7.65;3.28;;;20.40;99.90;;;;;;4806170;29;20079;-69
2022/06/13 05:58:11;;;;;;;6.07;2.67;;;20.70;99.90;;;;;;4786636;29;20453;-68
2022/06/13 06:00:44;;;;;;;8.63;3.05;;;20.90;99.90;;;;;;4804665;29;20130;-69
2022/06/13 06:03:10;;;;;;;6.95;3.15;;;20.80;99.90;;;;;;4786509;29;20059;-69
2022/06/13 06:05:38;;;;;;;8.57;3.05;;;21.10;99.90;;;;;;4789185;29;20073;-67
2022/06/13 06:08:04;;;;;;;7.65;3.08;;;20.60;99.90;;;;;;4784120;29;20099;-67
2022/06/13 06:10:33;;;;;;;6.82;3.33;;;19.70;99.90;;;;;;4800811;29;20055;-67
2022/06/13 06:12:59;;;;;;;7.75;2.60;;;19.80;99.90;;;;;;4778875;30;20138;-67
2022/06/13 06:15:24;;;;;;;6.50;2.88;;;19.60;99.90;;;;;;4773640;30;20439;-69
2022/06/13 06:17:50;;;;;;;5.15;2.55;;;19.10;99.90;;;;;;4801517;29;20124;-69
2022/06/13 06:20:22;;;;;;;4.93;2.03;;;18.60;99.90;;;;;;4802468;29;20120;-69
2022/06/13 06:22:48;;;;;;;4.85;2.30;;;18.20;99.90;;;;;;4804347;29;20050;-67
2022/06/13 06:25:14;;;;;;;5.07;2.05;;;17.80;99.90;;;;;;4790612;29;20055;-67
2022/06/13 06:27:39;;;;;;;5.28;1.85;;;17.50;99.90;;;;;;4791189;29;20050;-68
2022/06/13 06:30:06;;;;;;;7.15;2.17;;;17.30;99.90;;;;;;4806276;29;20059;-67
2022/06/13 06:32:32;;;;;;;5.07;1.75;;;17.10;99.90;;;;;;4805993;29;20058;-67
2022/06/13 06:34:58;;;;;;;6.18;2.05;;;17.00;99.90;;;;;;4806184;29;20121;-66
2022/06/13 06:37:23;;;;;;;5.72;1.75;;;16.80;99.90;;;;;;4807501;29;20047;-68
2022/06/13 06:39:49;;;;;;;6.10;2.28;;;16.70;99.90;;;;;;4776274;29;20061;-66
2022/06/13 06:42:21;;;;;;;6.88;1.98;;;16.50;99.90;;;;;;4776371;29;20105;-71
2022/06/13 06:44:50;;;;;;;5.85;2.03;;;16.40;99.90;;;;;;4775856;29;20084;-66
2022/06/13 06:47:16;;;;;;;3.92;2.00;;;16.30;99.90;;;;;;4788085;29;20111;-68
2022/06/13 06:49:41;;;;;;;6.75;2.70;;;16.10;99.90;;;;;;4790858;29;20057;-67
2022/06/13 06:52:07;;;;;;;2.97;1.67;;;16.20;99.90;;;;;;4807052;29;20062;-67
2022/06/13 07:00:05;;;;;;;5.32;1.77;;;16.60;99.90;;;;;;4806911;29;20047;-69
2022/06/13 07:02:31;;;;;;;5.70;1.67;;;16.90;99.90;;;;;;4806143;29;20051;-68
2022/06/13 07:05:06;;;;;;;4.63;1.63;;;17.10;99.90;;;;;;4806235;29;20054;-68
2022/06/13 07:07:32;;;;;;;4.10;1.80;;;17.20;99.90;;;;;;4805685;29;20051;-67
2022/06/13 07:09:57;;;;;;;4.30;1.67;;;17.30;99.90;;;;;;4789499;29;20115;-67
2022/06/13 07:12:23;;;;;;;5.55;1.63;;;17.20;99.90;;;;;;4805173;29;20561;-68
2022/06/13 07:14:49;;;;;;;4.15;1.40;;;16.90;99.90;;;;;;4802721;29;20062;-69
2022/06/13 07:17:15;;;;;;;5.10;1.50;;;16.60;99.90;;;;;;4772913;29;20397;-70
2022/06/13 07:19:44;;;;;;;4.68;1.80;;;16.40;99.90;;;;;;4780095;30;20051;-70
2022/06/13 07:22:19;;;;;;;7.07;2.17;;;16.30;99.90;;;;;;4779295;29;20054;-71
2022/06/13 07:24:46;;;;;;;4.60;1.83;;;16.20;99.90;;;;;;4787589;30;20194;-68
2022/06/13 07:27:13;;;;;;;5.30;1.88;;;16.10;99.90;;;;;;4788870;29;20050;-69
2022/06/13 07:29:40;;;;;;;3.53;1.40;;;16.20;99.90;;;;;;4788717;29;20503;-68
2022/06/13 07:32:16;;;;;;;4.85;1.50;;;16.20;99.90;;;;;;4784994;29;20389;-70
2022/06/13 07:34:44;;;;;;;1.98;1.20;;;16.30;99.90;;;;;;4791055;29;20142;-67
2022/06/13 07:37:12;;;;;;;2.38;1.30;;;16.40;99.90;;;;;;4806185;29;20132;-68
2022/06/13 07:39:38;;;;;;;3.65;1.17;;;16.50;99.90;;;;;;4789108;29;20047;-71
2022/06/13 07:42:04;;;;;;;4.20;1.30;;;16.70;99.90;;;;;;4789396;29;20057;-68
2022/06/13 07:44:37;;;;;;;4.90;1.38;;;16.80;99.90;;;;;;4789870;29;20059;-69
2022/06/13 07:47:04;;;;;;;2.53;1.08;;;16.80;99.90;;;;;;4789422;29;20046;-68
2022/06/13 07:49:30;;;;;;;2.67;1.20;;;16.90;99.90;;;;;;4789830;29;20082;-70
2022/06/13 07:51:56;;;;;;;3.28;1.42;;;17.10;99.90;;;;;;4789650;29;20407;-68
2022/06/13 07:54:22;;;;;;;2.55;1.35;;;17.30;99.90;;;;;;4789995;29;20055;-68
2022/06/13 07:56:49;;;;;;;6.00;1.50;;;17.50;99.90;;;;;;4805463;29;20054;-69
2022/06/13 07:59:18;;;;;;;3.63;1.27;;;17.70;99.90;;;;;;4806008;29;20050;-67
2022/06/13 08:01:44;;;;;;;5.57;1.20;;;17.70;99.90;;;;;;4805637;29;20093;-68
2022/06/13 08:04:11;;;;;;;3.55;1.15;;;17.80;99.90;;;;;;4790703;29;20090;-70
2022/06/13 08:06:42;;;;;;;4.75;1.40;;;17.80;99.90;;;;;;4789988;29;20381;-68
2022/06/13 08:09:11;;;;;;;5.25;1.63;;;17.90;99.90;;;;;;4789459;29;20050;-69
2022/06/13 08:11:43;;;;;;;2.15;1.15;;;17.90;99.90;;;;;;4804981;29;20047;-66
2022/06/13 08:14:09;;;;;;;4.57;1.70;;;17.90;99.90;;;;;;4805743;29;20542;-67
2022/06/13 08:16:35;;;;;;;4.88;1.63;;;17.90;99.90;;;;;;4789080;29;20050;-68
2022/06/13 08:19:03;;;;;;;4.57;1.30;;;18.00;99.90;;;;;;4805899;29;20138;-67
2022/06/13 08:21:29;;;;;;;4.03;1.20;;;18.30;99.90;;;;;;4789696;29;20115;-69
2022/06/13 08:23:55;;;;;;;4.32;1.30;;;18.30;99.90;;;;;;4789684;29;20464;-70
2022/06/13 08:26:21;;;;;;;5.97;1.48;;;18.10;99.90;;;;;;4789536;29;20150;-69
2022/06/13 08:28:47;;;;;;;4.05;1.40;;;17.80;99.90;;;;;;4805983;29;20082;-70
2022/06/13 08:31:17;;;;;;;4.25;1.55;;;17.50;99.90;;;;;;4804921;29;20085;-69
2022/06/13 08:33:43;;;;;;;5.57;1.55;;;17.40;99.90;;;;;;4788818;29;20078;-69
2022/06/13 08:36:09;;;;;;;4.38;1.20;;;17.60;99.90;;;;;;4788530;29;20051;-67
2022/06/13 08:38:36;;;;;;;8.63;1.80;;;17.90;99.90;;;;;;4772295;29;20050;-67
2022/06/13 08:41:10;;;;;;;3.60;1.40;;;18.20;99.90;;;;;;4804258;29;20063;-67
2022/06/13 08:44:02;;;;;;;3.60;1.20;;;18.40;99.90;;;;;;4804678;29;20065;-69
2022/06/13 08:46:50;;;;;;;7.43;1.48;;;18.60;99.90;;;;;;4804959;29;20067;-69
2022/06/13 08:49:39;;;;;;;6.82;1.50;;;18.60;99.90;;;;;;4803726;29;20054;-69
2022/06/13 08:52:17;;;;;;;4.25;1.17;;;18.60;99.90;;;;;;4805373;29;20050;-70
2022/06/13 08:54:54;;;;;;;4.15;1.20;;;18.70;99.90;;;;;;4805742;29;20066;-68
2022/06/13 08:57:21;;;;;;;3.80;1.25;;;18.50;99.90;;;;;;4805053;29;20057;-70
2022/06/13 08:59:52;;;;;;;3.67;1.25;;;18.20;99.90;;;;;;4806023;29;20492;-68
2022/06/13 09:02:28;;;;;;;5.18;1.00;;;17.80;99.90;;;;;;4804627;29;20513;-69
2022/06/13 09:05:14;;;;;;;4.50;1.20;;;17.50;99.90;;;;;;4789068;29;20051;-68
2022/06/13 09:07:44;;;;;;;5.35;1.30;;;17.40;99.90;;;;;;4805406;29;20070;-69
2022/06/13 09:10:22;;;;;;;4.38;1.20;;;17.20;99.90;;;;;;4789059;29;20366;-69
2022/06/13 09:13:43;;;;;;;4.13;1.00;;;17.10;99.90;;;;;;4788701;29;20070;-69
2022/06/13 09:16:11;;;;;;;3.63;1.00;;;17.40;99.90;;;;;;4746404;29;20090;-69
2022/06/13 09:18:49;;;;;;;3.65;1.10;;;17.80;99.90;;;;;;4788964;29;20547;-68
2022/06/13 09:21:18;;;;;;;3.42;1.23;;;18.20;99.90;;;;;;4804495;29;20460;-70
2022/06/13 09:24:00;;;;;;;4.57;1.10;;;18.20;99.90;;;;;;4788732;29;20055;-68
2022/06/13 09:26:48;;;;;;;5.30;1.10;;;18.00;99.90;;;;;;4788595;29;20054;-69
2022/06/13 09:29:18;;;;;;;3.42;0.77;;;17.90;99.90;;;;;;4787682;29;20062;-70
2022/06/13 09:31:47;;;;;;;4.82;0.95;;;18.00;99.90;;;;;;4788287;29;20229;-68
2022/06/13 09:34:30;;;;;;;5.80;1.17;;;18.20;99.90;;;;;;4788803;29;20050;-69
2022/06/13 09:37:06;;;;;;;4.13;1.00;;;18.60;99.90;;;;;;4789179;29;20415;-68
2022/06/13 09:39:32;;;;;;;2.22;0.80;;;18.70;99.10;;;;;;4804772;29;20485;-68
2022/06/13 09:42:17;;;;;;;4.00;0.80;;;18.60;99.90;;;;;;4789140;29;20126;-69
2022/06/13 09:45:09;;;;;;;2.72;0.90;;;18.40;92.00;;;;;;4807162;29;20058;-70
2022/06/13 09:47:54;;;;;;;4.47;1.15;;;18.10;84.50;;;;;;4791739;29;20557;-67
2022/06/13 09:50:48;;;;;;;5.68;1.23;;;17.90;95.90;;;;;;4808338;29;20081;-70
2022/06/13 09:53:31;;;;;;;1.75;0.98;;;17.90;98.90;;;;;;4791602;29;20047;-69
2022/06/13 09:56:21;;;;;;;4.55;1.20;;;17.90;99.90;;;;;;4790208;29;20100;-67
2022/06/13 09:59:11;;;;;;;3.35;1.17;;;17.90;99.90;;;;;;4807529;29;20050;-69
2022/06/13 10:01:58;;;;;;;4.97;1.15;;;17.70;99.90;;;;;;4802024;29;20388;-69
2022/06/13 10:04:39;;;;;;;4.07;1.15;;;17.50;99.90;;;;;;4788527;29;20050;-68
2022/06/13 10:07:18;;;;;;;3.45;0.93;;;17.70;99.90;;;;;;4804283;29;20067;-68
2022/06/13 10:10:14;;;;;;;4.05;1.08;;;18.00;99.90;;;;;;4803472;29;20050;-67
2022/06/13 10:13:30;;;;;;;5.78;1.10;;;18.20;92.00;;;;;;4789410;29;20163;-67
2022/06/13 10:16:08;;;;;;;5.57;1.10;;;18.50;99.90;;;;;;4806071;29;20058;-70
2022/06/13 10:19:08;;;;;;;5.15;1.17;;;18.60;99.90;;;;;;4788597;29;20063;-69
2022/06/13 10:21:40;;;;;;;4.80;1.08;;;18.40;92.00;;;;;;4805000;29;20062;-70
2022/06/13 10:24:26;;;;;;;4.70;1.30;;;18.00;98.00;;;;;;4789933;29;20078;-68
2022/06/13 10:27:04;;;;;;;4.68;1.15;;;18.00;99.90;;;;;;4784011;29;20107;-68
2022/06/13 10:29:45;;;;;;;5.25;1.17;;;18.00;99.90;;;;;;4805038;29;20059;-70
2022/06/13 10:32:33;;;;;;;5.38;1.10;;;18.20;99.90;;;;;;4790547;29;20127;-69
2022/06/13 10:35:18;;;;;;;4.00;1.15;;;18.50;97.20;;;;;;4791112;29;20115;-69
2022/06/13 10:37:56;;;;;;;4.20;1.10;;;18.30;91.30;;;;;;4789540;29;20184;-68
2022/06/13 10:40:24;;;;;;;3.35;1.00;;;18.60;92.50;;;;;;4803391;29;20051;-68
2022/06/13 10:42:50;;;;;;;4.38;0.90;;;18.90;96.80;;;;;;4806790;29;20051;-70
2022/06/13 10:45:16;;;;;;;6.07;1.30;;;19.20;91.90;;;;;;4790872;29;20126;-70
2022/06/13 10:48:02;;;;;;;5.50;0.93;;;19.20;81.10;;;;;;4806719;29;20113;-68
2022/06/13 10:50:56;;;;;;;2.97;0.93;;;19.10;66.70;;;;;;4790541;29;20385;-69
2022/06/13 10:53:57;;;;;;;5.05;1.00;;;18.80;70.10;;;;;;4790502;29;20052;-67
2022/06/13 10:56:29;;;;;;;5.47;1.25;;;18.40;99.90;;;;;;4774477;29;20050;-70
2022/06/13 10:58:58;;;;;;;4.93;1.40;;;18.10;99.90;;;;;;4773207;30;20124;-70
2022/06/13 11:01:30;;;;;;;4.45;1.40;;;17.70;99.90;;;;;;4772364;30;20047;-72
2022/06/13 11:04:05;;;;;;;3.25;1.10;;;17.40;99.90;;;;;;4789174;30;20047;-70
2022/06/13 11:06:33;;;;;;;5.63;1.67;;;17.20;99.90;;;;;;4757686;30;20055;-75
2022/06/13 11:09:06;;;;;;;4.55;1.48;;;17.10;99.90;;;;;;4772953;30;20055;-71
2022/06/13 11:11:34;;;;;;;2.88;1.25;;;17.20;99.90;;;;;;4774707;29;20104;-70
2022/06/13 11:14:01;;;;;;;5.20;1.20;;;17.40;99.90;;;;;;4789476;29;20448;-69
2022/06/13 11:22:39;;;;;;;;;;;17.50;99.90;;;;;;4790012;29;20059;-70
2022/06/13 11:25:31;;;;;;;6.72;1.73;;;17.40;99.90;;;;;;4806483;29;20019;-70
2022/06/13 11:28:05;;;;;;;6.68;1.42;;;17.50;99.90;;;;;;4789971;29;20058;-68
2022/06/13 11:30:38;;;;;;;4.97;1.48;;;17.60;99.90;;;;;;4790918;29;20063;-68
2022/06/13 11:33:14;;;;;;;4.75;1.25;;;18.00;99.90;;;;;;4774985;29;20153;-70
2022/06/13 11:35:44;;;;;;;4.35;1.20;;;18.20;99.90;;;;;;4774948;29;20161;-70
2022/06/13 11:38:21;;;;;;;4.90;1.20;;;18.00;99.90;;;;;;4790325;29;20078;-68
2022/06/13 11:40:58;;;;;;;4.68;1.25;;;18.00;99.90;;;;;;4790235;29;20082;-69
2022/06/13 11:44:04;;;;;;;3.35;1.00;;;18.10;99.90;;;;;;4789922;29;20461;-70
2022/06/13 11:46:50;;;;;;;3.95;1.00;;;18.10;99.90;;;;;;4760035;29;20059;-69
2022/06/13 11:49:15;;;;;;;5.75;1.48;;;18.00;99.90;;;;;;4790202;29;20468;-68
2022/06/13 11:51:43;;;;;;;4.28;1.45;;;18.10;99.90;;;;;;4788624;29;20133;-68
2022/06/13 11:54:38;;;;;;;3.88;1.17;;;18.20;99.90;;;;;;4789367;29;20055;-68
2022/06/13 11:57:13;;;;;;;4.00;1.35;;;18.20;99.90;;;;;;4775075;29;20047;-67
2022/06/13 11:59:47;;;;;;;4.88;1.55;;;18.20;99.90;;;;;;4789689;29;20123;-69
2022/06/13 12:02:17;;;;;;;5.10;1.85;;;18.20;99.90;;;;;;4805675;29;20051;-68
2022/06/13 12:04:46;;;;;;;5.78;1.67;;;18.10;99.90;;;;;;4805253;29;20080;-67
2022/06/13 12:07:23;;;;;;;4.30;1.33;;;18.10;99.90;;;;;;4795295;29;20426;-68
2022/06/13 12:09:53;;;;;;;4.90;1.70;;;18.30;99.90;;;;;;4813012;29;20470;-68
2022/06/13 12:12:19;;;;;;;4.80;1.40;;;18.30;98.30;;;;;;4790934;29;20100;-68
2022/06/13 12:14:45;;;;;;;9.45;2.00;;;18.30;99.90;;;;;;4806005;29;20089;-69
2022/06/13 12:17:16;;;;;;;10.85;3.05;;;18.10;99.90;;;;;;4789190;29;20046;-69
2022/06/13 12:20:04;;;;;;;7.57;1.75;;;18.00;99.90;;;;;;4805785;29;20051;-68
2022/06/13 12:22:39;;;;;;;6.10;1.55;;;18.20;99.90;;;;;;4805832;29;20065;-69
2022/06/13 12:25:23;;;;;;;8.27;1.77;;;18.30;99.90;;;;;;4789569;29;20315;-68
2022/06/13 12:28:13;;;;;;;8.48;1.67;;;18.60;99.90;;;;;;4788753;29;20069;-69
2022/06/13 12:31:05;;;;;;;6.88;1.30;;;18.70;96.20;;;;;;4805454;29;20059;-67
2022/06/13 12:34:10;;;;;;;5.00;1.33;;;18.90;95.60;;;;;;4789274;29;20454;-68
2022/06/13 12:36:53;;;;;;;6.13;1.40;;;19.00;97.80;;;;;;4787168;29;20524;-68
2022/06/13 12:39:48;;;;;;;3.80;1.50;;;19.00;95.20;;;;;;4786599;29;20061;-69
2022/06/13 12:42:43;;;;;;;5.68;1.60;;;18.80;96.40;;;;;;4741245;29;20056;-69
2022/06/13 12:45:47;;;;;;;4.43;1.15;;;18.60;98.20;;;;;;4775380;29;20368;-68
2022/06/13 12:48:23;;;;;;;14.40;1.60;;;18.80;97.60;;;;;;4774390;29;20438;-69
2022/06/13 12:51:27;;;;;;;8.15;1.30;;;18.70;98.30;;;;;;4774278;29;20049;-69
2022/06/13 12:54:20;;;;;;;4.35;1.30;;;18.50;93.70;;;;;;4773485;29;20046;-69
2022/06/13 12:57:20;;;;;;;5.13;1.30;;;18.40;96.70;;;;;;4773568;29;20074;-69
2022/06/13 13:00:04;;;;;;;4.05;1.20;;;18.10;96.10;;;;;;4773300;29;20039;-67
2022/06/13 13:03:04;;;;;;;6.40;1.52;;;18.20;99.90;;;;;;4772638;29;20095;-68
2022/06/13 13:05:51;;;;;;;4.25;1.40;;;18.30;99.90;;;;;;4769350;29;20223;-68
2022/06/13 13:08:38;;;;;;;6.05;1.60;;;18.30;99.90;;;;;;4773140;29;20128;-69
2022/06/13 13:11:14;;;;;;;9.25;1.70;;;18.30;99.90;;;;;;4784906;29;20055;-68
2022/06/13 13:13:51;;;;;;;4.45;1.50;;;18.30;99.90;;;;;;4782644;29;20070;-69
2022/06/13 13:16:43;;;;;;;3.63;1.35;;;18.30;99.90;;;;;;4762943;29;20039;-68
2022/06/13 13:19:43;;;;;;;3.35;1.20;;;18.20;97.90;;;;;;4794736;29;20118;-68
2022/06/13 13:22:30;;;;;;;4.00;1.38;;;18.10;86.10;;;;;;4774144;29;20360;-67
2022/06/13 13:25:15;;;;;;;4.40;1.00;;;18.40;89.70;;;;;;4788813;29;20042;-69
2022/06/13 13:27:58;;;;;;;4.68;1.48;;;18.70;79.20;;;;;;4792171;29;20083;-69
2022/06/13 13:30:31;;;;;;;5.97;1.30;;;18.70;75.20;;;;;;4791835;29;20057;-67
2022/06/13 13:33:27;;;;;;;4.38;1.13;;;18.90;85.30;;;;;;4776950;29;20440;-67
2022/06/13 13:36:20;;;;;;;6.40;1.55;;;18.40;80.70;;;;;;4777008;29;20050;-68
2022/06/13 13:38:53;;;;;;;6.40;1.88;;;18.30;94.60;;;;;;4752259;29;20047;-67
2022/06/13 13:41:41;;;;;;;4.97;1.33;;;18.20;98.90;;;;;;4776076;29;20412;-67
2022/06/13 13:44:20;;;;;;;6.00;1.45;;;18.10;99.90;;;;;;4777719;29;20335;-68